sensor_id;sensor_type;location;lat;lon;timestamp;temperature;humidity
11609;DHT22;5860;52.018;8.536;2023-03-11T00:00:40;0.40;99.90
11609;DHT22;5860;52.018;8.536;2023-03-11T00:03:12;0.40;99.90
11609;DHT22;5860;52.018;8.536;2023-03-11T00:05:41;0.40;99.90
11609;DHT22;5860;52.018;8.536;2023-03-11T00:08:15;0.40;99.90
11609;DHT22;5860;52.018;8.536;2023-03-11T00:10:44;0.40;99.90
11609;DHT22;5860;52.018;8.536;2023-03-11T00:13:14;0.40;99.90
11609;DHT22;5860;52.018;8.536;2023-03-11T00:15:42;0.40;99.90
11609;DHT22;5860;52.018;8.536;2023-03-11T00:18:10;0.40;99.90
11609;DHT22;5860;52.018;8.536;2023-03-11T00:20:39;0.40;99.90
11609;DHT22;5860;52.018;8.536;2023-03-11T00:23:08;0.40;99.90
11609;DHT22;5860;52.018;8.536;2023-03-11T00:25:37;0.40;99.90
11609;DHT22;5860;52.018;8.536;2023-03-11T00:28:05;0.40;99.90
11609;DHT22;5860;52.018;8.536;2023-03-11T00:30:37;0.40;99.90
11609;DHT22;5860;52.018;8.536;2023-03-11T00:33:05;0.40;99.90
11609;DHT22;5860;52.018;8.536;2023-03-11T00:35:34;0.40;99.90
11609;DHT22;5860;52.018;8.536;2023-03-11T00:38:04;0.40;99.90
11609;DHT22;5860;52.018;8.536;2023-03-11T00:40:34;0.40;99.90
11609;DHT22;5860;52.018;8.536;2023-03-11T00:43:02;0.40;99.90
11609;DHT22;5860;52.018;8.536;2023-03-11T00:45:29;0.40;99.90
11609;DHT22;5860;52.018;8.536;2023-03-11T00:47:57;0.40;99.90
11609;DHT22;5860;52.018;8.536;2023-03-11T00:50:27;0.40;99.90
11609;DHT22;5860;52.018;8.536;2023-03-11T00:52:55;0.40;99.90
11609;DHT22;5860;52.018;8.536;2023-03-11T00:55:25;0.40;99.90
11609;DHT22;5860;52.018;8.536;2023-03-11T00:57:53;0.40;99.90
11609;DHT22;5860;52.018;8.536;2023-03-11T01:00:23;0.40;99.90
11609;DHT22;5860;52.018;8.536;2023-03-11T01:02:51;0.40;99.90
11609;DHT22;5860;52.018;8.536;2023-03-11T01:05:24;0.40;99.90
11609;DHT22;5860;52.018;8.536;2023-03-11T01:07:51;0.40;99.90
11609;DHT22;5860;52.018;8.536;2023-03-11T01:10:18;0.40;99.90
11609;DHT22;5860;52.018;8.536;2023-03-11T01:12:45;0.40;99.90
11609;DHT22;5860;52.018;8.536;2023-03-11T01:15:19;0.40;99.90
11609;DHT22;5860;52.018;8.536;2023-03-11T01:17:47;0.40;99.90
11609;DHT22;5860;52.018;8.536;2023-03-11T01:20:14;0.40;99.90
11609;DHT22;5860;52.018;8.536;2023-03-11T01:22:41;0.40;99.90
11609;DHT22;5860;52.018;8.536;2023-03-11T01:25:13;0.50;99.90
11609;DHT22;5860;52.018;8.536;2023-03-11T01:27:41;0.50;99.90
11609;DHT22;5860;52.018;8.536;2023-03-11T01:30:13;0.50;99.90
11609;DHT22;5860;52.018;8.536;2023-03-11T01:32:40;0.50;99.90
11609;DHT22;5860;52.018;8.536;2023-03-11T01:35:10;0.40;99.90
11609;DHT22;5860;52.018;8.536;2023-03-11T01:37:37;0.50;99.90
11609;DHT22;5860;52.018;8.536;2023-03-11T01:40:06;0.40;99.90
11609;DHT22;5860;52.018;8.536;2023-03-11T01:42:33;0.50;99.90
11609;DHT22;5860;52.018;8.536;2023-03-11T01:45:00;0.40;99.90
11609;DHT22;5860;52.018;8.536;2023-03-11T01:47:36;0.40;99.90
11609;DHT22;5860;52.018;8.536;2023-03-11T01:50:06;0.50;99.90
11609;DHT22;5860;52.018;8.536;2023-03-11T01:52:35;0.50;99.90
11609;DHT22;5860;52.018;8.536;2023-03-11T01:55:03;0.50;99.90
11609;DHT22;5860;52.018;8.536;2023-03-11T01:57:32;0.50;99.90
11609;DHT22;5860;52.018;8.536;2023-03-11T02:00:00;0.40;99.90
11609;DHT22;5860;52.018;8.536;2023-03-11T02:02:41;0.40;99.90
11609;DHT22;5860;52.018;8.536;2023-03-11T02:05:09;0.50;99.90
11609;DHT22;5860;52.018;8.536;2023-03-11T02:07:38;0.40;99.90
11609;DHT22;5860;52.018;8.536;2023-03-11T02:10:07;0.40;99.90
11609;DHT22;5860;52.018;8.536;2023-03-11T02:12:35;0.40;99.90
11609;DHT22;5860;52.018;8.536;2023-03-11T02:15:04;0.40;99.90
11609;DHT22;5860;52.018;8.536;2023-03-11T02:17:33;0.40;99.90
11609;DHT22;5860;52.018;8.536;2023-03-11T02:20:37;0.50;99.90
11609;DHT22;5860;52.018;8.536;2023-03-11T02:23:06;0.50;99.90
11609;DHT22;5860;52.018;8.536;2023-03-11T02:25:55;0.50;99.90
11609;DHT22;5860;52.018;8.536;2023-03-11T02:28:27;0.50;99.90
11609;DHT22;5860;52.018;8.536;2023-03-11T02:30:54;0.50;99.90
11609;DHT22;5860;52.018;8.536;2023-03-11T02:33:25;0.50;99.90
11609;DHT22;5860;52.018;8.536;2023-03-11T02:35:54;0.50;99.90
11609;DHT22;5860;52.018;8.536;2023-03-11T02:38:23;0.50;99.90
11609;DHT22;5860;52.018;8.536;2023-03-11T02:40:56;0.50;99.90
11609;DHT22;5860;52.018;8.536;2023-03-11T02:43:41;0.50;99.90
11609;DHT22;5860;52.018;8.536;2023-03-11T02:46:11;0.50;99.90
11609;DHT22;5860;52.018;8.536;2023-03-11T02:48:40;0.40;99.90
11609;DHT22;5860;52.018;8.536;2023-03-11T02:51:07;0.40;99.90
11609;DHT22;5860;52.018;8.536;2023-03-11T02:53:40;0.40;99.90
11609;DHT22;5860;52.018;8.536;2023-03-11T02:56:09;0.40;99.90
11609;DHT22;5860;52.018;8.536;2023-03-11T02:58:36;0.30;99.90
11609;DHT22;5860;52.018;8.536;2023-03-11T03:01:03;0.30;99.90
11609;DHT22;5860;52.018;8.536;2023-03-11T03:03:30;0.30;99.90
11609;DHT22;5860;52.018;8.536;2023-03-11T03:05:57;0.30;99.90
11609;DHT22;5860;52.018;8.536;2023-03-11T03:08:24;0.30;99.90
11609;DHT22;5860;52.018;8.536;2023-03-11T03:10:51;0.30;99.90
11609;DHT22;5860;52.018;8.536;2023-03-11T03:13:18;0.30;99.90
11609;DHT22;5860;52.018;8.536;2023-03-11T03:15:44;0.30;99.90
11609;DHT22;5860;52.018;8.536;2023-03-11T03:18:11;0.30;99.90
11609;DHT22;5860;52.018;8.536;2023-03-11T03:20:38;0.20;99.90
11609;DHT22;5860;52.018;8.536;2023-03-11T03:23:05;0.30;99.90
11609;DHT22;5860;52.018;8.536;2023-03-11T03:25:32;0.30;99.90
11609;DHT22;5860;52.018;8.536;2023-03-11T03:27:59;0.30;99.90
11609;DHT22;5860;52.018;8.536;2023-03-11T03:30:25;0.30;99.90
11609;DHT22;5860;52.018;8.536;2023-03-11T03:32:55;0.30;99.90
11609;DHT22;5860;52.018;8.536;2023-03-11T03:35:22;0.30;99.90
11609;DHT22;5860;52.018;8.536;2023-03-11T03:37:49;0.30;99.90
11609;DHT22;5860;52.018;8.536;2023-03-11T03:40:16;0.30;99.90
11609;DHT22;5860;52.018;8.536;2023-03-11T03:42:43;0.30;99.90
11609;DHT22;5860;52.018;8.536;2023-03-11T03:45:10;0.30;99.90
11609;DHT22;5860;52.018;8.536;2023-03-11T03:47:37;0.30;99.90
11609;DHT22;5860;52.018;8.536;2023-03-11T03:50:06;0.30;99.90
11609;DHT22;5860;52.018;8.536;2023-03-11T03:52:34;0.20;99.90
11609;DHT22;5860;52.018;8.536;2023-03-11T03:55:02;0.20;99.90
11609;DHT22;5860;52.018;8.536;2023-03-11T03:57:30;0.20;99.90
11609;DHT22;5860;52.018;8.536;2023-03-11T03:59:57;0.20;99.90
11609;DHT22;5860;52.018;8.536;2023-03-11T04:02:24;0.20;99.90
11609;DHT22;5860;52.018;8.536;2023-03-11T04:04:51;0.20;99.90
11609;DHT22;5860;52.018;8.536;2023-03-11T04:07:18;0.20;99.90
11609;DHT22;5860;52.018;8.536;2023-03-11T04:09:44;0.10;99.90
11609;DHT22;5860;52.018;8.536;2023-03-11T04:12:15;0.20;99.90
11609;DHT22;5860;52.018;8.536;2023-03-11T04:14:43;0.10;99.90
11609;DHT22;5860;52.018;8.536;2023-03-11T04:17:11;0.10;99.90
11609;DHT22;5860;52.018;8.536;2023-03-11T04:19:39;0.20;99.90
11609;DHT22;5860;52.018;8.536;2023-03-11T04:22:06;0.20;99.90
11609;DHT22;5860;52.018;8.536;2023-03-11T04:24:33;0.20;99.90
11609;DHT22;5860;52.018;8.536;2023-03-11T04:26:59;0.30;99.90
11609;DHT22;5860;52.018;8.536;2023-03-11T04:29:26;0.20;99.90
11609;DHT22;5860;52.018;8.536;2023-03-11T04:31:53;0.20;99.90
11609;DHT22;5860;52.018;8.536;2023-03-11T04:34:20;0.20;99.90
11609;DHT22;5860;52.018;8.536;2023-03-11T04:36:51;0.20;99.90
11609;DHT22;5860;52.018;8.536;2023-03-11T04:39:19;0.20;99.90
11609;DHT22;5860;52.018;8.536;2023-03-11T04:41:46;0.30;99.90
11609;DHT22;5860;52.018;8.536;2023-03-11T04:44:12;0.20;99.90
11609;DHT22;5860;52.018;8.536;2023-03-11T04:46:40;0.30;99.90
11609;DHT22;5860;52.018;8.536;2023-03-11T04:49:07;0.20;99.90
11609;DHT22;5860;52.018;8.536;2023-03-11T04:51:34;0.30;99.90
11609;DHT22;5860;52.018;8.536;2023-03-11T04:54:00;0.20;99.90
11609;DHT22;5860;52.018;8.536;2023-03-11T04:56:28;0.20;99.90
11609;DHT22;5860;52.018;8.536;2023-03-11T04:58:55;0.20;99.90
11609;DHT22;5860;52.018;8.536;2023-03-11T05:01:22;0.20;99.90
11609;DHT22;5860;52.018;8.536;2023-03-11T05:03:48;0.20;99.90
11609;DHT22;5860;52.018;8.536;2023-03-11T05:06:15;0.10;99.90
11609;DHT22;5860;52.018;8.536;2023-03-11T05:08:42;0.10;99.90
11609;DHT22;5860;52.018;8.536;2023-03-11T05:11:09;0.00;99.90
11609;DHT22;5860;52.018;8.536;2023-03-11T05:13:36;-0.10;99.90
11609;DHT22;5860;52.018;8.536;2023-03-11T05:16:03;-0.10;99.90
11609;DHT22;5860;52.018;8.536;2023-03-11T05:18:30;-0.10;99.90
11609;DHT22;5860;52.018;8.536;2023-03-11T05:20:58;-0.10;99.90
11609;DHT22;5860;52.018;8.536;2023-03-11T05:23:25;-0.20;99.90
11609;DHT22;5860;52.018;8.536;2023-03-11T05:25:51;-0.10;99.90
11609;DHT22;5860;52.018;8.536;2023-03-11T05:28:18;-0.10;99.90
11609;DHT22;5860;52.018;8.536;2023-03-11T05:30:45;-0.10;99.90
11609;DHT22;5860;52.018;8.536;2023-03-11T05:33:12;-0.10;99.90
11609;DHT22;5860;52.018;8.536;2023-03-11T05:35:39;-0.10;99.90
11609;DHT22;5860;52.018;8.536;2023-03-11T05:38:06;-0.20;99.90
11609;DHT22;5860;52.018;8.536;2023-03-11T05:40:33;-0.20;99.90
11609;DHT22;5860;52.018;8.536;2023-03-11T05:43:00;-0.30;99.90
11609;DHT22;5860;52.018;8.536;2023-03-11T05:45:27;-0.30;99.90
11609;DHT22;5860;52.018;8.536;2023-03-11T05:47:53;-0.40;99.90
11609;DHT22;5860;52.018;8.536;2023-03-11T05:50:20;-0.30;99.90
11609;DHT22;5860;52.018;8.536;2023-03-11T05:52:48;-0.40;99.90
11609;DHT22;5860;52.018;8.536;2023-03-11T05:55:14;-0.40;99.90
11609;DHT22;5860;52.018;8.536;2023-03-11T05:57:42;-0.40;99.90
11609;DHT22;5860;52.018;8.536;2023-03-11T06:00:09;-0.40;99.90
11609;DHT22;5860;52.018;8.536;2023-03-11T06:02:40;-0.50;99.90
11609;DHT22;5860;52.018;8.536;2023-03-11T06:05:07;-0.50;99.90
11609;DHT22;5860;52.018;8.536;2023-03-11T06:07:37;-0.40;99.90
11609;DHT22;5860;52.018;8.536;2023-03-11T06:10:04;-0.40;99.90
11609;DHT22;5860;52.018;8.536;2023-03-11T06:12:33;-0.40;99.90
11609;DHT22;5860;52.018;8.536;2023-03-11T06:15:01;-0.40;99.90
11609;DHT22;5860;52.018;8.536;2023-03-11T06:17:27;-0.30;99.90
11609;DHT22;5860;52.018;8.536;2023-03-11T06:19:56;-0.30;99.90
11609;DHT22;5860;52.018;8.536;2023-03-11T06:22:23;-0.20;99.90
11609;DHT22;5860;52.018;8.536;2023-03-11T06:24:50;-0.20;99.90
11609;DHT22;5860;52.018;8.536;2023-03-11T06:27:17;-0.10;99.90
11609;DHT22;5860;52.018;8.536;2023-03-11T06:29:44;-0.10;99.90
11609;DHT22;5860;52.018;8.536;2023-03-11T06:32:14;0.00;99.90
11609;DHT22;5860;52.018;8.536;2023-03-11T06:34:40;0.00;99.90
11609;DHT22;5860;52.018;8.536;2023-03-11T06:37:07;0.00;99.90
11609;DHT22;5860;52.018;8.536;2023-03-11T06:39:34;0.00;99.90
11609;DHT22;5860;52.018;8.536;2023-03-11T06:42:01;0.00;99.90
11609;DHT22;5860;52.018;8.536;2023-03-11T06:44:28;0.00;99.90
11609;DHT22;5860;52.018;8.536;2023-03-11T06:46:55;0.00;99.90
11609;DHT22;5860;52.018;8.536;2023-03-11T06:49:22;0.10;99.90
11609;DHT22;5860;52.018;8.536;2023-03-11T06:51:49;0.20;99.90
11609;DHT22;5860;52.018;8.536;2023-03-11T06:54:16;0.20;99.90
11609;DHT22;5860;52.018;8.536;2023-03-11T06:56:42;0.20;99.90
11609;DHT22;5860;52.018;8.536;2023-03-11T06:59:09;0.20;99.90
11609;DHT22;5860;52.018;8.536;2023-03-11T07:01:36;0.30;99.90
11609;DHT22;5860;52.018;8.536;2023-03-11T07:04:03;0.30;99.90
11609;DHT22;5860;52.018;8.536;2023-03-11T07:06:30;0.40;99.90
11609;DHT22;5860;52.018;8.536;2023-03-11T07:08:57;0.40;99.90
11609;DHT22;5860;52.018;8.536;2023-03-11T07:11:25;0.40;99.90
11609;DHT22;5860;52.018;8.536;2023-03-11T07:13:53;0.40;99.90
11609;DHT22;5860;52.018;8.536;2023-03-11T07:16:25;0.40;99.90
11609;DHT22;5860;52.018;8.536;2023-03-11T07:18:58;0.40;99.90
11609;DHT22;5860;52.018;8.536;2023-03-11T07:21:28;0.40;99.90
11609;DHT22;5860;52.018;8.536;2023-03-11T07:23:57;0.50;99.90
11609;DHT22;5860;52.018;8.536;2023-03-11T07:26:26;0.50;99.90
11609;DHT22;5860;52.018;8.536;2023-03-11T07:28:54;0.60;99.90
11609;DHT22;5860;52.018;8.536;2023-03-11T07:31:31;0.60;99.90
11609;DHT22;5860;52.018;8.536;2023-03-11T07:34:00;0.60;99.90
11609;DHT22;5860;52.018;8.536;2023-03-11T07:36:29;0.60;99.90
11609;DHT22;5860;52.018;8.536;2023-03-11T07:38:58;0.60;99.90
11609;DHT22;5860;52.018;8.536;2023-03-11T07:41:29;0.60;99.90
11609;DHT22;5860;52.018;8.536;2023-03-11T07:43:58;0.50;99.90
11609;DHT22;5860;52.018;8.536;2023-03-11T07:46:26;0.50;99.90
11609;DHT22;5860;52.018;8.536;2023-03-11T07:48:54;0.60;99.90
11609;DHT22;5860;52.018;8.536;2023-03-11T07:51:24;0.60;99.90
11609;DHT22;5860;52.018;8.536;2023-03-11T07:53:53;0.70;99.90
11609;DHT22;5860;52.018;8.536;2023-03-11T07:56:22;0.70;99.90
11609;DHT22;5860;52.018;8.536;2023-03-11T07:58:50;0.70;99.90
11609;DHT22;5860;52.018;8.536;2023-03-11T08:01:20;0.70;99.90
11609;DHT22;5860;52.018;8.536;2023-03-11T08:03:49;0.80;99.90
11609;DHT22;5860;52.018;8.536;2023-03-11T08:06:19;0.80;99.90
11609;DHT22;5860;52.018;8.536;2023-03-11T08:08:47;0.90;99.90
11609;DHT22;5860;52.018;8.536;2023-03-11T08:11:16;0.90;99.90
11609;DHT22;5860;52.018;8.536;2023-03-11T08:13:44;1.00;99.90
11609;DHT22;5860;52.018;8.536;2023-03-11T08:16:13;1.00;99.90
11609;DHT22;5860;52.018;8.536;2023-03-11T08:18:41;1.10;99.90
11609;DHT22;5860;52.018;8.536;2023-03-11T08:21:11;1.20;99.90
11609;DHT22;5860;52.018;8.536;2023-03-11T08:23:38;1.10;99.90
11609;DHT22;5860;52.018;8.536;2023-03-11T08:26:08;1.10;99.90
11609;DHT22;5860;52.018;8.536;2023-03-11T08:28:36;1.10;99.90
11609;DHT22;5860;52.018;8.536;2023-03-11T08:31:10;1.20;99.90
11609;DHT22;5860;52.018;8.536;2023-03-11T08:33:37;1.20;99.90
11609;DHT22;5860;52.018;8.536;2023-03-11T08:36:04;1.30;99.90
11609;DHT22;5860;52.018;8.536;2023-03-11T08:38:34;1.20;99.90
11609;DHT22;5860;52.018;8.536;2023-03-11T08:41:02;1.20;99.90
11609;DHT22;5860;52.018;8.536;2023-03-11T08:43:31;1.40;99.90
11609;DHT22;5860;52.018;8.536;2023-03-11T08:46:00;1.40;99.90
11609;DHT22;5860;52.018;8.536;2023-03-11T08:48:27;1.40;99.90
11609;DHT22;5860;52.018;8.536;2023-03-11T08:50:55;1.50;99.90
11609;DHT22;5860;52.018;8.536;2023-03-11T08:53:22;1.50;99.90
11609;DHT22;5860;52.018;8.536;2023-03-11T08:55:50;1.50;99.90
11609;DHT22;5860;52.018;8.536;2023-03-11T08:58:18;1.60;99.90
11609;DHT22;5860;52.018;8.536;2023-03-11T09:00:45;1.60;99.90
11609;DHT22;5860;52.018;8.536;2023-03-11T09:03:12;1.70;99.90
11609;DHT22;5860;52.018;8.536;2023-03-11T09:05:40;1.60;99.90
11609;DHT22;5860;52.018;8.536;2023-03-11T09:08:07;1.70;99.90
11609;DHT22;5860;52.018;8.536;2023-03-11T09:10:34;1.60;99.90
11609;DHT22;5860;52.018;8.536;2023-03-11T09:13:04;1.70;99.90
11609;DHT22;5860;52.018;8.536;2023-03-11T09:15:31;1.70;99.90
11609;DHT22;5860;52.018;8.536;2023-03-11T09:17:58;1.70;99.90
11609;DHT22;5860;52.018;8.536;2023-03-11T09:20:25;1.80;99.90
11609;DHT22;5860;52.018;8.536;2023-03-11T09:22:52;1.80;99.90
11609;DHT22;5860;52.018;8.536;2023-03-11T09:25:19;1.90;99.90
11609;DHT22;5860;52.018;8.536;2023-03-11T09:27:46;1.80;99.90
11609;DHT22;5860;52.018;8.536;2023-03-11T09:30:13;1.90;99.90
11609;DHT22;5860;52.018;8.536;2023-03-11T09:32:40;1.90;99.90
11609;DHT22;5860;52.018;8.536;2023-03-11T09:35:08;1.90;99.90
11609;DHT22;5860;52.018;8.536;2023-03-11T09:37:35;2.00;99.90
11609;DHT22;5860;52.018;8.536;2023-03-11T09:40:02;2.10;99.90
11609;DHT22;5860;52.018;8.536;2023-03-11T09:45:16;2.20;99.90
11609;DHT22;5860;52.018;8.536;2023-03-11T09:47:58;2.20;99.90
11609;DHT22;5860;52.018;8.536;2023-03-11T09:50:37;2.20;99.90
11609;DHT22;5860;52.018;8.536;2023-03-11T09:53:29;2.30;99.90
11609;DHT22;5860;52.018;8.536;2023-03-11T09:56:01;2.30;99.90
11609;DHT22;5860;52.018;8.536;2023-03-11T09:58:39;2.50;99.90
11609;DHT22;5860;52.018;8.536;2023-03-11T10:03:49;2.50;99.90
11609;DHT22;5860;52.018;8.536;2023-03-11T10:06:20;2.60;99.90
11609;DHT22;5860;52.018;8.536;2023-03-11T10:25:24;2.90;99.90
11609;DHT22;5860;52.018;8.536;2023-03-11T10:28:02;2.80;99.90
11609;DHT22;5860;52.018;8.536;2023-03-11T10:30:42;2.90;99.90
11609;DHT22;5860;52.018;8.536;2023-03-11T10:33:35;2.90;99.90
11609;DHT22;5860;52.018;8.536;2023-03-11T10:36:11;2.70;99.90
11609;DHT22;5860;52.018;8.536;2023-03-11T10:38:43;2.40;99.90
11609;DHT22;5860;52.018;8.536;2023-03-11T10:42:02;2.40;99.90
11609;DHT22;5860;52.018;8.536;2023-03-11T10:44:24;2.40;99.90
11609;DHT22;5860;52.018;8.536;2023-03-11T10:46:52;2.70;99.90
11609;DHT22;5860;52.018;8.536;2023-03-11T10:49:19;3.00;99.90
11609;DHT22;5860;52.018;8.536;2023-03-11T10:51:49;3.10;99.90
11609;DHT22;5860;52.018;8.536;2023-03-11T10:56:57;3.00;99.90
11609;DHT22;5860;52.018;8.536;2023-03-11T11:01:56;3.00;99.90
11609;DHT22;5860;52.018;8.536;2023-03-11T11:06:55;2.70;99.90
11609;DHT22;5860;52.018;8.536;2023-03-11T11:09:22;2.70;99.90
11609;DHT22;5860;52.018;8.536;2023-03-11T11:12:11;2.50;99.90
11609;DHT22;5860;52.018;8.536;2023-03-11T11:14:43;2.90;99.90
11609;DHT22;5860;52.018;8.536;2023-03-11T11:17:26;3.00;99.90
11609;DHT22;5860;52.018;8.536;2023-03-11T11:19:54;2.90;99.90
11609;DHT22;5860;52.018;8.536;2023-03-11T11:22:24;2.90;99.90
11609;DHT22;5860;52.018;8.536;2023-03-11T11:24:53;2.80;99.90
11609;DHT22;5860;52.018;8.536;2023-03-11T11:27:26;3.20;99.90
11609;DHT22;5860;52.018;8.536;2023-03-11T11:32:36;3.20;99.90
11609;DHT22;5860;52.018;8.536;2023-03-11T11:35:08;3.20;99.90
11609;DHT22;5860;52.018;8.536;2023-03-11T11:37:45;3.20;99.90
11609;DHT22;5860;52.018;8.536;2023-03-11T11:45:37;3.60;99.90
11609;DHT22;5860;52.018;8.536;2023-03-11T11:50:43;3.70;99.90
11609;DHT22;5860;52.018;8.536;2023-03-11T11:53:31;3.70;99.90
11609;DHT22;5860;52.018;8.536;2023-03-11T11:56:01;3.60;99.90
11609;DHT22;5860;52.018;8.536;2023-03-11T11:58:29;3.80;99.90
11609;DHT22;5860;52.018;8.536;2023-03-11T12:01:19;3.50;99.90
11609;DHT22;5860;52.018;8.536;2023-03-11T12:10:09;3.40;99.90
11609;DHT22;5860;52.018;8.536;2023-03-11T12:16:00;3.70;99.90
11609;DHT22;5860;52.018;8.536;2023-03-11T12:21:42;4.10;99.90
11609;DHT22;5860;52.018;8.536;2023-03-11T12:27:02;3.50;99.90
11609;DHT22;5860;52.018;8.536;2023-03-11T12:29:40;3.50;99.90
11609;DHT22;5860;52.018;8.536;2023-03-11T12:32:22;3.50;99.90
11609;DHT22;5860;52.018;8.536;2023-03-11T12:34:50;3.70;99.90
11609;DHT22;5860;52.018;8.536;2023-03-11T12:37:21;3.90;99.90
11609;DHT22;5860;52.018;8.536;2023-03-11T12:39:48;4.10;99.90
11609;DHT22;5860;52.018;8.536;2023-03-11T12:42:18;4.20;99.90
11609;DHT22;5860;52.018;8.536;2023-03-11T12:44:48;4.10;99.90
11609;DHT22;5860;52.018;8.536;2023-03-11T12:47:24;4.30;99.90
11609;DHT22;5860;52.018;8.536;2023-03-11T12:49:57;4.30;99.90
11609;DHT22;5860;52.018;8.536;2023-03-11T12:52:52;3.80;99.90
11609;DHT22;5860;52.018;8.536;2023-03-11T12:55:29;3.40;99.90
11609;DHT22;5860;52.018;8.536;2023-03-11T12:58:31;3.20;99.90
11609;DHT22;5860;52.018;8.536;2023-03-11T13:01:32;3.10;99.90
11609;DHT22;5860;52.018;8.536;2023-03-11T13:04:19;3.20;99.90
11609;DHT22;5860;52.018;8.536;2023-03-11T13:09:30;3.50;99.90
11609;DHT22;5860;52.018;8.536;2023-03-11T13:11:57;3.90;99.90
11609;DHT22;5860;52.018;8.536;2023-03-11T13:14:34;4.20;99.90
11609;DHT22;5860;52.018;8.536;2023-03-11T13:19:58;4.60;99.90
11609;DHT22;5860;52.018;8.536;2023-03-11T13:39:16;3.80;99.90
11609;DHT22;5860;52.018;8.536;2023-03-11T13:41:45;4.00;99.90
11609;DHT22;5860;52.018;8.536;2023-03-11T13:47:01;4.00;99.90
11609;DHT22;5860;52.018;8.536;2023-03-11T13:50:04;4.00;99.90
11609;DHT22;5860;52.018;8.536;2023-03-11T13:52:46;4.40;99.90
11609;DHT22;5860;52.018;8.536;2023-03-11T13:55:38;4.50;99.90
11609;DHT22;5860;52.018;8.536;2023-03-11T13:58:15;4.60;99.90
11609;DHT22;5860;52.018;8.536;2023-03-11T14:00:47;4.60;99.90
11609;DHT22;5860;52.018;8.536;2023-03-11T14:03:16;4.50;99.90
11609;DHT22;5860;52.018;8.536;2023-03-11T14:05:56;4.30;99.90
11609;DHT22;5860;52.018;8.536;2023-03-11T14:08:32;4.40;99.90
11609;DHT22;5860;52.018;8.536;2023-03-11T14:11:01;4.40;99.90
11609;DHT22;5860;52.018;8.536;2023-03-11T14:13:29;4.20;99.90
11609;DHT22;5860;52.018;8.536;2023-03-11T14:16:06;4.20;99.90
11609;DHT22;5860;52.018;8.536;2023-03-11T14:18:45;4.30;99.90
11609;DHT22;5860;52.018;8.536;2023-03-11T14:21:19;4.30;99.90
11609;DHT22;5860;52.018;8.536;2023-03-11T14:23:51;4.30;99.90
11609;DHT22;5860;52.018;8.536;2023-03-11T14:26:36;4.50;99.90
11609;DHT22;5860;52.018;8.536;2023-03-11T14:29:14;4.60;99.90
11609;DHT22;5860;52.018;8.536;2023-03-11T14:31:43;4.50;99.90
11609;DHT22;5860;52.018;8.536;2023-03-11T14:34:40;4.60;99.90
11609;DHT22;5860;52.018;8.536;2023-03-11T14:37:26;4.80;99.90
11609;DHT22;5860;52.018;8.536;2023-03-11T14:39:56;4.50;99.90
11609;DHT22;5860;52.018;8.536;2023-03-11T14:42:33;4.50;99.90
11609;DHT22;5860;52.018;8.536;2023-03-11T14:55:48;4.40;99.90
11609;DHT22;5860;52.018;8.536;2023-03-11T15:03:46;4.50;99.90
11609;DHT22;5860;52.018;8.536;2023-03-11T15:06:16;4.50;99.90
11609;DHT22;5860;52.018;8.536;2023-03-11T15:08:51;4.50;99.90
11609;DHT22;5860;52.018;8.536;2023-03-11T15:11:22;4.50;99.90
11609;DHT22;5860;52.018;8.536;2023-03-11T15:13:51;4.50;99.90
11609;DHT22;5860;52.018;8.536;2023-03-11T15:18:48;4.30;99.90
11609;DHT22;5860;52.018;8.536;2023-03-11T15:21:16;4.30;99.90
11609;DHT22;5860;52.018;8.536;2023-03-11T15:23:49;4.30;99.90
11609;DHT22;5860;52.018;8.536;2023-03-11T15:26:29;4.30;99.90
11609;DHT22;5860;52.018;8.536;2023-03-11T15:31:33;4.10;99.90
11609;DHT22;5860;52.018;8.536;2023-03-11T15:44:28;4.30;99.90
11609;DHT22;5860;52.018;8.536;2023-03-11T15:46:56;4.20;99.90
11609;DHT22;5860;52.018;8.536;2023-03-11T15:49:25;4.20;99.90
11609;DHT22;5860;52.018;8.536;2023-03-11T15:51:57;4.20;99.90
11609;DHT22;5860;52.018;8.536;2023-03-11T15:54:25;4.10;99.90
11609;DHT22;5860;52.018;8.536;2023-03-11T15:56:54;4.00;99.90
11609;DHT22;5860;52.018;8.536;2023-03-11T15:59:21;3.90;99.90
11609;DHT22;5860;52.018;8.536;2023-03-11T16:01:49;3.90;99.90
11609;DHT22;5860;52.018;8.536;2023-03-11T16:04:17;4.00;99.90
11609;DHT22;5860;52.018;8.536;2023-03-11T16:06:46;4.00;99.90
11609;DHT22;5860;52.018;8.536;2023-03-11T16:09:28;4.10;99.90
11609;DHT22;5860;52.018;8.536;2023-03-11T16:11:57;4.00;99.90
11609;DHT22;5860;52.018;8.536;2023-03-11T16:14:24;4.00;99.90
11609;DHT22;5860;52.018;8.536;2023-03-11T16:16:51;3.90;99.90
11609;DHT22;5860;52.018;8.536;2023-03-11T16:19:18;3.90;99.90
11609;DHT22;5860;52.018;8.536;2023-03-11T16:21:46;3.80;99.90
11609;DHT22;5860;52.018;8.536;2023-03-11T16:24:20;3.70;99.90
11609;DHT22;5860;52.018;8.536;2023-03-11T16:26:48;3.70;99.90
11609;DHT22;5860;52.018;8.536;2023-03-11T16:29:18;3.70;99.90
11609;DHT22;5860;52.018;8.536;2023-03-11T16:31:46;3.70;99.90
11609;DHT22;5860;52.018;8.536;2023-03-11T16:34:14;3.50;99.90
11609;DHT22;5860;52.018;8.536;2023-03-11T16:36:41;3.50;99.90
11609;DHT22;5860;52.018;8.536;2023-03-11T16:39:10;3.50;99.90
11609;DHT22;5860;52.018;8.536;2023-03-11T16:41:42;3.50;99.90
11609;DHT22;5860;52.018;8.536;2023-03-11T16:44:10;3.40;99.90
11609;DHT22;5860;52.018;8.536;2023-03-11T16:46:37;3.40;99.90
11609;DHT22;5860;52.018;8.536;2023-03-11T16:49:05;3.20;99.90
11609;DHT22;5860;52.018;8.536;2023-03-11T16:51:32;3.20;99.90
11609;DHT22;5860;52.018;8.536;2023-03-11T16:54:00;3.10;99.90
11609;DHT22;5860;52.018;8.536;2023-03-11T16:56:27;2.90;99.90
11609;DHT22;5860;52.018;8.536;2023-03-11T16:58:54;2.90;99.90
11609;DHT22;5860;52.018;8.536;2023-03-11T17:01:21;2.80;99.90
11609;DHT22;5860;52.018;8.536;2023-03-11T17:03:49;2.80;99.90
11609;DHT22;5860;52.018;8.536;2023-03-11T17:06:17;2.70;99.90
11609;DHT22;5860;52.018;8.536;2023-03-11T17:08:45;2.60;99.90
11609;DHT22;5860;52.018;8.536;2023-03-11T17:11:22;2.60;99.90
11609;DHT22;5860;52.018;8.536;2023-03-11T17:13:49;2.60;99.90
11609;DHT22;5860;52.018;8.536;2023-03-11T17:16:16;2.60;99.90
11609;DHT22;5860;52.018;8.536;2023-03-11T17:18:43;2.30;99.90
11609;DHT22;5860;52.018;8.536;2023-03-11T17:21:13;2.20;99.90
11609;DHT22;5860;52.018;8.536;2023-03-11T17:23:40;2.20;99.90
11609;DHT22;5860;52.018;8.536;2023-03-11T17:26:10;2.20;99.90
11609;DHT22;5860;52.018;8.536;2023-03-11T17:28:41;2.20;99.90
11609;DHT22;5860;52.018;8.536;2023-03-11T17:31:12;2.20;99.90
11609;DHT22;5860;52.018;8.536;2023-03-11T17:33:41;2.10;99.90
11609;DHT22;5860;52.018;8.536;2023-03-11T17:36:10;1.90;99.90
11609;DHT22;5860;52.018;8.536;2023-03-11T17:38:38;1.80;99.90
11609;DHT22;5860;52.018;8.536;2023-03-11T17:41:10;1.70;99.90
11609;DHT22;5860;52.018;8.536;2023-03-11T17:43:38;1.50;99.90
11609;DHT22;5860;52.018;8.536;2023-03-11T17:46:11;1.50;99.90
11609;DHT22;5860;52.018;8.536;2023-03-11T17:48:44;1.50;99.90
11609;DHT22;5860;52.018;8.536;2023-03-11T17:51:14;1.70;99.90
11609;DHT22;5860;52.018;8.536;2023-03-11T17:53:43;1.60;99.90
11609;DHT22;5860;52.018;8.536;2023-03-11T17:56:13;1.50;99.90
11609;DHT22;5860;52.018;8.536;2023-03-11T17:58:41;1.70;99.90
11609;DHT22;5860;52.018;8.536;2023-03-11T18:01:12;1.90;99.90
11609;DHT22;5860;52.018;8.536;2023-03-11T18:03:40;1.70;99.90
11609;DHT22;5860;52.018;8.536;2023-03-11T18:06:07;1.50;99.90
11609;DHT22;5860;52.018;8.536;2023-03-11T18:08:35;1.30;99.90
11609;DHT22;5860;52.018;8.536;2023-03-11T18:11:08;1.20;99.90